• Join FlightAware (Why Join?)
  • Login
  • US Flag 
05:27PM EST


 

Airport Tracker/Info


-or-


 

Live Flight TrackerFlight Track Log ✈ FIN666 ✈ 02-Nov-2013 ✈ EKCH / CPH - EFHK / HEL

Flight Track Log - Related Links

Times and Time Zones

All times are in EDT time to prevent confusion due to time zone crossing. See the FIN666 flight status page for this flight to view local times or setup timezone preferences in your user account.

Time Position Orientation Groundspeed Altitude Reporting Facility
EDT Latitude Longitude Course Direction KTS MPH feet Rate Location/Type
08:35AM 55.8520 13.1400 49° Northeast  Level Estimated
08:36AM 55.9296 13.3027 50° Northeast  Level Estimated
08:37AM 56.0070 13.4660 50° Northeast  Level Estimated
08:38AM 56.0878 13.6376 50° Northeast  Level Estimated
08:39AM 56.1684 13.8100 50° Northeast  Level Estimated
08:40AM 56.2487 13.9831 50° Northeast  Level Estimated
08:41AM 56.3288 14.1569 50° Northeast  Level Estimated
08:42AM 56.4086 14.3315 50° Northeast  Level Estimated
08:43AM 56.4882 14.5068 51° Northeast  Level Estimated
08:44AM 56.5675 14.6828 51° Northeast  Level Estimated
08:45AM 56.6466 14.8595 51° Northeast  Level Estimated
08:46AM 56.7255 15.0370 51° Northeast  Level Estimated
08:47AM 56.8040 15.2153 51° Northeast  Level Estimated
08:48AM 56.8824 15.3943 51° Northeast  Level Estimated
08:49AM 56.9604 15.5740 51° Northeast  Level Estimated
08:50AM 57.0382 15.7545 52° Northeast  Level Estimated
08:51AM 57.1158 15.9358 52° Northeast  Level Estimated
08:52AM 57.1931 16.1178 52° Northeast  Level Estimated
08:53AM 57.2701 16.3006 52° Northeast  Level Estimated
08:54AM 57.3469 16.4841 52° Northeast  Level Estimated
08:55AM 57.4234 16.6684 52° Northeast  Level Estimated
08:56AM 57.4996 16.8535 52° Northeast  Level Estimated
08:57AM 57.5755 17.0394 53° Northeast  Level Estimated
08:58AM 57.6512 17.2260 53° Northeast  Level Estimated
08:59AM 57.7266 17.4134 53° Northeast  Level Estimated
09:00AM 57.8017 17.6016 53° Northeast  Level Estimated
09:01AM 57.8765 17.7906 53° Northeast  Level Estimated
09:02AM 57.9511 17.9803 53° Northeast  Level Estimated
09:03AM 58.0254 18.1709 54° Northeast  Level Estimated
09:04AM 58.0994 18.3622 54° Northeast  Level Estimated
09:05AM 58.1731 18.5544 54° Northeast  Level Estimated
09:06AM 58.2465 18.7473 54° Northeast  Level Estimated
09:07AM 58.3196 18.9410 54° Northeast  Level Estimated
09:08AM 58.3924 19.1355 54° Northeast  Level Estimated
09:09AM 58.4649 19.3309 55° Northeast  Level Estimated
09:10AM 58.5372 19.5270 55° Northeast  Level Estimated
09:11AM 58.6091 19.7240 55° Northeast  Level Estimated
09:12AM 58.6807 19.9217 55° Northeast  Level Estimated
09:13AM 58.7520 20.1203 55° Northeast  Level Estimated
09:14AM 58.8231 20.3197 55° Northeast  Level Estimated
09:15AM 58.8938 20.5199 56° Northeast  Level Estimated
09:16AM 58.9641 20.7209 56° Northeast  Level Estimated
09:17AM 59.0342 20.9228 56° Northeast  Level Estimated
09:18AM 59.1040 21.1254 56° Northeast  Level Estimated
09:19AM 59.1735 21.3289 56° Northeast  Level Estimated
09:20AM 59.2426 21.5332 56° Northeast  Level Estimated
09:21AM 59.3114 21.7384 57° Northeast  Level Estimated
09:22AM 59.3799 21.9443 57° Northeast  Level Estimated
09:23AM 59.4480 22.1511 57° Northeast  Level Estimated
09:24AM 59.5159 22.3588 57° Northeast  Level Estimated
09:25AM 59.5834 22.5673 57° Northeast  Level Estimated
09:26AM 59.6505 22.7766 58° Northeast  Level Estimated
09:27AM 59.7174 22.9867 58° Northeast  Level Estimated
09:28AM 59.7839 23.1977 58° Northeast  Level Estimated
09:29AM 59.8500 23.4095 58° Northeast  Level Estimated
09:30AM 59.9159 23.6222 58° Northeast  Level Estimated
09:31AM 59.9813 23.8357 58° Northeast  Level Estimated
09:32AM 60.0465 24.0501 59° Northeast  Level Estimated
09:33AM 60.1112 24.2653 59° Northeast  Level Estimated
09:34AM 60.1757 24.4813 59° Northeast  Level Estimated
09:35AM 60.2397 24.6982 59° Northeast  Level Estimated
09:36AM 60.3034 24.9160 59° Northeast  Level Estimated
09:37AM 60.3172 24.9633 60° Northeast  Level Estimated
09:38AM 60.3172 24.9633 37° Northeast  Level Estimated
09:39AM 60.3172 24.9633 37° Northeast  Level Estimated
09:40AM 60.3172 24.9633 37° Northeast  Level Estimated
09:41AM 60.3172 24.9633 37° Northeast  Level Estimated
09:42AM 60.3172 24.9633 37° Northeast  Level Estimated
09:43AM 60.3172 24.9633 37° Northeast  Level Estimated
09:44AM 60.3172 24.9633 37° Northeast  Level Estimated
09:45AM 60.3172 24.9633 37° Northeast  Level Estimated
09:46AM 60.3172 24.9633 37° Northeast  Level Estimated
09:47AM 60.3172 24.9633 37° Northeast  Level Estimated
09:48AM 60.3172 24.9633 37° Northeast  Level Estimated
09:49AM 60.3172 24.9633 37° Northeast  Level Estimated
09:50AM 60.3172 24.9633 37° Northeast  Level Estimated